Time;durP1;ratioP1;P1;durP2;ratioP2;P2;SDS_P1;SDS_P2;PMS_P1;PMS_P2;Temp;Humidity;BMP_temperature;BMP_pressure;BME280_temperature;BME280_humidity;BME280_pressure;Samples;Min_cycle;Max_cycle;Signal;HPM_P1;HPM_P2
2021/05/03 00:06:17;;;;;;;1999.90;999.90;;;;;;;8.88;69.49;101147.72;15434538;28;20365;-64
2021/05/03 00:13:48;;;;;;;1999.90;999.90;;;;;;;8.73;69.65;101148.84;15433228;28;20142;-64
2021/05/03 00:21:21;;;;;;;1999.90;999.90;;;;;;;8.52;69.80;101147.63;15417194;28;20097;-65
2021/05/03 00:28:52;;;;;;;1999.90;999.90;;;;;;;8.55;70.01;101147.03;15416234;28;20137;-64
2021/05/03 00:36:25;;;;;;;1999.90;999.90;;;;;;;8.74;68.86;101152.44;15432433;28;20082;-64
2021/05/03 00:43:56;;;;;;;1999.90;999.90;;;;;;;8.37;69.76;101166.25;15432970;28;20047;-65
2021/05/03 00:51:29;;;;;;;1999.90;999.90;;;;;;;8.34;69.47;101171.59;15433104;28;20075;-63
2021/05/03 00:59:01;;;;;;;1999.90;999.90;;;;;;;8.19;69.76;101169.91;15432576;28;20456;-64
2021/05/03 01:06:33;;;;;;;1999.90;999.90;;;;;;;8.09;69.78;101176.47;15431799;28;20046;-64
2021/05/03 01:14:05;;;;;;;1999.90;999.90;;;;;;;7.78;70.36;101178.94;15432844;28;20042;-62
2021/05/03 01:21:37;;;;;;;1999.90;999.90;;;;;;;7.87;70.18;101181.88;15432236;28;20069;-64
2021/05/03 01:29:09;;;;;;;1999.90;999.90;;;;;;;7.39;71.04;101190.38;15415155;28;20074;-64
2021/05/03 01:36:43;;;;;;;1999.90;999.90;;;;;;;7.67;70.50;101191.34;15432213;28;20415;-64
2021/05/03 01:44:16;;;;;;;1999.90;999.90;;;;;;;7.40;70.57;101199.53;15431702;28;20054;-64
2021/05/03 01:51:49;;;;;;;1999.90;999.90;;;;;;;7.21;71.19;101205.09;15431522;28;20043;-65
2021/05/03 01:59:21;;;;;;;1999.90;999.90;;;;;;;7.40;70.25;101216.19;15421071;28;20046;-64
2021/05/03 02:06:53;;;;;;;1999.90;999.90;;;;;;;7.05;70.34;101211.97;15442429;28;20096;-64
2021/05/03 02:14:25;;;;;;;1999.90;999.90;;;;;;;7.11;69.88;101213.56;15440056;28;20492;-64
2021/05/03 02:21:57;;;;;;;1999.90;999.90;;;;;;;6.98;70.26;101219.81;15439658;28;20097;-64
2021/05/03 02:29:28;;;;;;;1999.90;999.90;;;;;;;6.66;71.04;101232.41;15439392;28;20470;-63
2021/05/03 02:37:01;;;;;;;1999.90;999.90;;;;;;;7.12;69.45;101229.09;15438550;28;20098;-64
2021/05/03 02:44:32;;;;;;;1999.90;999.90;;;;;;;7.06;69.71;101244.16;15439651;28;20051;-65
2021/05/03 02:52:05;;;;;;;1999.90;999.90;;;;;;;6.97;69.21;101232.88;15438394;28;20393;-63
2021/05/03 02:59:37;;;;;;;1999.90;999.90;;;;;;;6.79;70.19;101248.38;15437908;28;20043;-64
2021/05/03 03:07:09;;;;;;;1999.90;999.90;;;;;;;6.68;70.16;101248.78;15435915;28;20046;-64
2021/05/03 03:14:42;;;;;;;1999.90;999.90;;;;;;;6.68;70.47;101255.16;15437882;28;20050;-64
2021/05/03 03:22:14;;;;;;;1999.90;999.90;;;;;;;6.62;70.84;101261.84;15437652;28;20053;-64
2021/05/03 03:29:46;;;;;;;1999.90;999.90;;;;;;;6.53;69.95;101280.25;15438267;28;20220;-63
2021/05/03 03:37:18;;;;;;;1999.90;999.90;;;;;;;6.59;69.84;101282.69;15419770;28;20138;-62
2021/05/03 03:44:50;;;;;;;1999.90;999.90;;;;;;;6.35;70.75;101293.69;15419473;28;20081;-62
2021/05/03 03:52:23;;;;;;;1999.90;999.90;;;;;;;6.53;70.42;101291.34;15435898;28;20114;-63
2021/05/03 03:59:55;;;;;;;1999.90;999.90;;;;;;;6.58;69.92;101297.69;15435662;28;20058;-63
2021/05/03 04:07:33;;;;;;;1999.90;999.90;;;;;;;6.55;69.49;101311.28;15418058;28;20038;-63
2021/05/03 04:23:08;;;;;;;1999.90;999.90;;;;;;;6.27;70.56;101322.06;15400864;28;20047;-63
2021/05/03 04:30:39;;;;;;;;;;;;;;;6.60;70.13;101333.44;15435157;28;20047;-62
2021/05/03 04:38:11;;;;;;;1999.90;999.90;;;;;;;6.42;70.22;101339.69;15415968;28;20024;-62
2021/05/03 04:45:44;;;;;;;1999.90;999.90;;;;;;;6.84;69.61;101353.72;15400210;28;20050;-64
2021/05/03 04:53:17;;;;;;;1999.90;999.90;;;;;;;6.98;68.87;101358.56;15434082;28;20078;-63
2021/05/03 05:00:48;;;;;;;1999.90;999.90;;;;;;;7.05;67.99;101356.28;15433341;28;20050;-63
2021/05/03 05:08:22;;;;;;;1999.90;999.90;;;;;;;7.05;68.42;101359.03;15432233;28;20047;-63
2021/05/03 05:15:53;;;;;;;1999.90;999.90;;;;;;;7.42;66.82;101364.75;15414976;28;20055;-63
2021/05/03 05:23:26;;;;;;;1999.90;999.90;;;;;;;7.93;65.77;101361.28;15432344;28;20471;-63
2021/05/03 05:30:58;;;;;;;1999.90;999.90;;;;;;;8.69;63.55;101384.31;15434338;28;20484;-63
2021/05/03 05:38:30;;;;;;;1999.90;999.90;;;;;;;8.28;64.36;101371.06;15425991;28;20047;-64
2021/05/03 05:46:02;;;;;;;1999.90;999.90;;;;;;;9.17;60.98;101384.00;15445073;28;20083;-64
2021/05/03 05:53:34;;;;;;;1999.90;999.90;;;;;;;10.02;58.84;101386.16;15410111;28;20247;-64
2021/05/03 06:01:06;;;;;;;1999.90;999.90;;;;;;;10.37;58.12;101389.28;15426859;28;20038;-65
2021/05/03 06:08:38;;;;;;;1999.90;999.90;;;;;;;10.75;56.57;101388.94;15425680;28;20121;-62
2021/05/03 06:16:10;;;;;;;1999.90;999.90;;;;;;;9.90;57.90;101398.97;15409412;28;20043;-61
2021/05/03 06:23:42;;;;;;;1999.90;999.90;;;;;;;9.75;58.92;101397.34;15441015;28;20126;-62
2021/05/03 06:31:14;;;;;;;1999.90;999.90;;;;;;;10.16;58.54;101402.84;15423731;28;20122;-63
2021/05/03 06:38:46;;;;;;;1999.90;999.90;;;;;;;10.81;57.13;101396.03;15422829;28;20058;-63
2021/05/03 06:46:18;;;;;;;1999.90;999.90;;;;;;;10.34;57.23;101401.09;15440124;28;20046;-61
2021/05/03 06:53:50;;;;;;;1999.90;999.90;;;;;;;9.82;58.89;101408.91;15439221;28;20078;-61
2021/05/03 07:01:22;;;;;;;1999.90;999.90;;;;;;;9.64;59.80;101419.03;15438931;28;20151;-64
2021/05/03 07:08:54;;;;;;;1999.90;999.90;;;;;;;9.42;60.09;101410.56;15438070;28;20053;-65
2021/05/03 07:16:26;;;;;;;1999.90;999.90;;;;;;;10.10;59.90;101415.25;15428910;28;20053;-62
2021/05/03 07:23:58;;;;;;;1999.90;999.90;;;;;;;10.29;58.24;101415.13;15417340;28;20133;-63
2021/05/03 07:31:32;;;;;;;1999.90;999.90;;;;;;;10.30;58.75;101431.56;15411334;28;20047;-61
2021/05/03 07:39:05;;;;;;;1999.90;999.90;;;;;;;10.57;57.27;101425.06;15434560;28;20102;-63
2021/05/03 07:46:37;;;;;;;;;;;;;;;10.75;56.45;101417.66;15434683;28;20051;-62
2021/05/03 07:54:10;;;;;;;1999.90;999.90;;;;;;;10.24;56.38;101423.63;15374961;28;19923;-64
2021/05/03 08:01:41;;;;;;;1999.90;999.90;;;;;;;10.52;56.50;101432.72;15358241;29;20110;-63
2021/05/03 08:09:14;;;;;;;1999.90;999.90;;;;;;;11.73;53.00;101431.50;15374386;29;20106;-62
2021/05/03 08:16:48;;;;;;;1999.90;999.90;;;;;;;12.91;50.36;101443.53;15403473;28;20038;-63
2021/05/03 08:24:22;;;;;;;1999.90;999.90;;;;;;;13.26;48.23;101443.50;15433424;28;20062;-61
2021/05/03 08:31:56;;;;;;;1999.90;999.90;;;;;;;12.38;49.87;101438.25;15432612;28;20051;-63
2021/05/03 08:39:29;;;;;;;1999.90;999.90;;;;;;;13.58;46.47;101444.88;15432832;28;20104;-64
2021/05/03 08:47:00;;;;;;;1999.90;999.90;;;;;;;12.09;48.64;101450.91;15399276;28;20530;-63
2021/05/03 08:54:36;;;;;;;1999.90;999.90;;;;;;;15.36;42.48;101449.03;15400711;28;20061;-63
2021/05/03 09:02:09;;;;;;;1999.90;999.90;;;;;;;12.83;47.56;101443.56;15432902;28;20137;-63
2021/05/03 09:09:45;;;;;;;1999.90;999.90;;;;;;;13.87;45.96;101438.50;15441747;28;20051;-64
2021/05/03 09:17:25;;;;;;;1999.90;999.90;;;;;;;13.97;45.76;101438.13;15443457;28;20049;-64
2021/05/03 09:25:17;;;;;;;1999.90;999.90;;;;;;;13.33;46.45;101448.59;15427222;28;20146;-65
2021/05/03 09:32:49;;;;;;;1999.90;999.90;;;;;;;13.84;46.61;101441.94;15443809;28;20571;-67
2021/05/03 09:40:22;;;;;;;1999.90;999.90;;;;;;;14.77;42.34;101434.41;15432496;28;20047;-65
2021/05/03 09:47:57;;;;;;;1999.90;999.90;;;;;;;14.56;43.02;101440.88;15441283;28;20069;-62
2021/05/03 09:55:36;;;;;;;1999.90;999.90;;;;;;;14.03;44.73;101435.91;15439618;28;20074;-63
2021/05/03 10:03:43;;;;;;;1999.90;999.90;;;;;;;13.83;44.31;101423.47;15419115;28;20034;-66
2021/05/03 10:11:16;;;;;;;1999.90;999.90;;;;;;;14.97;41.88;101420.31;15270073;28;20051;-65
2021/05/03 10:18:48;;;;;;;1999.90;999.90;;;;;;;14.84;42.55;101423.44;15421328;28;20070;-64
2021/05/03 10:26:21;;;;;;;1999.90;999.90;;;;;;;14.76;42.51;101419.53;15439654;28;20062;-62
2021/05/03 10:33:53;;;;;;;1999.90;999.90;;;;;;;14.71;42.73;101420.59;15422463;28;20084;-63
2021/05/03 10:41:26;;;;;;;1999.90;999.90;;;;;;;14.14;44.02;101423.13;15422191;28;20149;-63
2021/05/03 10:49:01;;;;;;;1999.90;999.90;;;;;;;15.02;40.70;101422.94;15420571;28;20130;-64
2021/05/03 10:56:39;;;;;;;1999.90;999.90;;;;;;;16.52;38.61;101416.66;15429705;28;20105;-63
2021/05/03 11:04:11;;;;;;;1999.90;999.90;;;;;;;14.96;39.88;101407.44;15436452;28;20511;-63
2021/05/03 11:11:45;;;;;;;1999.90;999.90;;;;;;;15.80;40.81;101409.97;15417360;28;20073;-63
2021/05/03 11:19:36;;;;;;;1999.90;999.90;;;;;;;14.38;39.67;101408.44;15396267;28;20053;-64
2021/05/03 11:27:12;;;;;;;1999.90;999.90;;;;;;;13.81;42.73;101398.56;15435510;28;20554;-63
2021/05/03 11:34:47;;;;;;;1999.90;999.90;;;;;;;15.56;38.57;101400.31;15431742;28;20105;-64
2021/05/03 11:42:42;;;;;;;1999.90;999.90;;;;;;;17.27;38.23;101391.44;15433502;28;20418;-63
2021/05/03 11:50:19;;;;;;;1999.90;999.90;;;;;;;16.78;36.43;101381.59;15436002;28;20444;-62
2021/05/03 11:57:52;;;;;;;1999.90;999.90;;;;;;;15.87;39.39;101385.69;15418006;28;20141;-62
2021/05/03 12:05:24;;;;;;;1999.90;999.90;;;;;;;14.51;40.30;101384.91;15435156;28;20070;-63
2021/05/03 12:12:57;;;;;;;1999.90;999.90;;;;;;;15.18;39.80;101378.09;15417229;28;20038;-63
2021/05/03 12:20:31;;;;;;;1999.90;999.90;;;;;;;15.63;39.36;101374.47;15434824;28;20046;-63
2021/05/03 12:28:08;;;;;;;1999.90;999.90;;;;;;;14.71;39.86;101367.22;15433726;28;20046;-63
2021/05/03 12:35:40;;;;;;;1999.90;999.90;;;;;;;14.06;40.86;101367.88;15417690;28;20050;-64
2021/05/03 12:43:13;;;;;;;1999.90;999.90;;;;;;;14.01;41.97;101368.91;15433196;28;20133;-61
2021/05/03 12:58:42;;;;;;;1999.90;999.90;;;;;;;13.62;44.26;101372.13;15423891;28;20054;-65
2021/05/03 13:06:22;;;;;;;1999.90;999.90;;;;;;;13.71;42.96;101356.06;15410880;28;20465;-63
2021/05/03 13:29:45;;;;;;;1999.90;999.90;;;;;;;12.40;48.52;101368.78;15434379;28;20035;-63
2021/05/03 13:37:18;;;;;;;1999.90;999.90;;;;;;;12.41;49.00;101367.66;15411006;28;20118;-62
2021/05/03 13:44:50;;;;;;;1999.90;999.90;;;;;;;14.41;45.75;101362.84;15407466;28;20078;-64
2021/05/03 13:52:21;;;;;;;1999.90;999.90;;;;;;;14.92;43.46;101355.94;15412650;28;20137;-64
2021/05/03 13:59:54;;;;;;;1999.90;999.90;;;;;;;14.37;44.05;101351.44;15418117;28;20117;-62
2021/05/03 14:07:25;;;;;;;1999.90;999.90;;;;;;;14.58;45.38;101353.44;15439386;28;20097;-63
2021/05/03 14:14:58;;;;;;;1999.90;999.90;;;;;;;14.89;43.92;101339.75;15424401;28;20074;-63
2021/05/03 14:22:29;;;;;;;1999.90;999.90;;;;;;;15.07;43.58;101328.31;15415135;28;20137;-64
2021/05/03 14:30:09;;;;;;;1999.90;999.90;;;;;;;14.68;43.38;101324.94;15430653;28;20047;-63
2021/05/03 14:37:41;;;;;;;1999.90;999.90;;;;;;;15.46;43.02;101302.34;15406330;28;20295;-62
2021/05/03 14:45:15;;;;;;;1999.90;999.90;;;;;;;14.74;43.79;101292.66;15421554;28;20042;-64
2021/05/03 14:52:58;;;;;;;1999.90;999.90;;;;;;;14.58;43.27;101278.44;15411924;28;20039;-65
2021/05/03 15:00:31;;;;;;;1999.90;999.90;;;;;;;15.10;44.64;101282.63;15422179;28;20043;-66
2021/05/03 15:08:03;;;;;;;1999.90;999.90;;;;;;;14.12;44.12;101273.91;15421475;28;20559;-65
2021/05/03 15:15:40;;;;;;;1999.90;999.90;;;;;;;14.27;44.20;101267.66;15405680;28;20053;-62
2021/05/03 15:23:12;;;;;;;1999.90;999.90;;;;;;;14.40;45.01;101269.38;15413908;23;20462;-57
2021/05/03 15:30:58;;;;;;;1999.90;999.90;;;;;;;14.99;43.79;101254.16;15367578;29;20542;-60
2021/05/03 15:38:31;;;;;;;1999.90;999.90;;;;;;;15.05;44.69;101254.78;15352121;29;20047;-62
2021/05/03 15:46:04;;;;;;;1999.90;999.90;;;;;;;14.80;45.67;101253.91;15368707;28;20198;-61
2021/05/03 15:53:37;;;;;;;;;;;;;;;14.16;46.31;101256.03;15371853;28;20079;-65
2021/05/03 16:01:09;;;;;;;1999.90;999.90;;;;;;;13.90;47.13;101235.81;15374415;29;20020;-60
2021/05/03 16:08:41;;;;;;;1999.90;999.90;;;;;;;14.43;46.88;101234.97;15374079;28;20143;-60
2021/05/03 16:16:14;;;;;;;1999.90;999.90;;;;;;;14.34;46.96;101220.19;15366219;28;20044;-61
2021/05/03 16:23:47;;;;;;;1999.90;999.90;;;;;;;13.74;46.68;101206.72;15353188;28;20047;-62
2021/05/03 16:31:20;;;;;;;1999.90;999.90;;;;;;;14.28;47.26;101198.31;15334191;29;20055;-58
2021/05/03 16:38:52;;;;;;;1999.90;999.90;;;;;;;14.07;47.49;101204.00;15367104;28;20062;-63
2021/05/03 16:46:26;;;;;;;1999.90;999.90;;;;;;;14.05;47.60;101212.72;15348738;28;20066;-58
2021/05/03 16:53:59;;;;;;;1999.90;999.90;;;;;;;12.88;56.36;101244.50;15348101;28;20070;-62
2021/05/03 17:01:32;;;;;;;;;;;;;;;12.58;60.63;101207.22;15366249;29;20157;-60
2021/05/03 17:09:04;;;;;;;1999.90;999.90;;;;;;;13.01;63.89;101176.22;15333024;29;19922;-61
2021/05/03 17:16:38;;;;;;;1999.90;999.90;;;;;;;13.09;63.14;101171.72;15348803;28;20051;-61
2021/05/03 17:24:11;;;;;;;1999.90;999.90;;;;;;;12.98;63.67;101174.09;15348373;28;20371;-61
2021/05/03 17:31:44;;;;;;;1999.90;999.90;;;;;;;12.94;62.78;101161.94;15358581;29;20198;-60
2021/05/03 17:39:17;;;;;;;1999.90;999.90;;;;;;;12.52;63.54;101145.00;15361998;29;20047;-61
2021/05/03 17:46:49;;;;;;;1999.90;999.90;;;;;;;12.29;64.38;101152.00;15360651;28;20117;-58
2021/05/03 17:54:21;;;;;;;1999.90;999.90;;;;;;;12.42;61.82;101140.59;15358085;28;20051;-59
2021/05/03 18:01:53;;;;;;;1999.90;999.90;;;;;;;12.29;63.04;101141.63;15359356;29;20504;-60
2021/05/03 18:09:25;;;;;;;1999.90;999.90;;;;;;;12.22;62.02;101130.16;15358539;29;20043;-57
2021/05/03 18:16:58;;;;;;;1999.90;999.90;;;;;;;12.00;62.71;101122.81;15357517;28;20138;-59
2021/05/03 18:24:30;;;;;;;1999.90;999.90;;;;;;;11.83;64.15;101106.06;15352027;28;20043;-61
2021/05/03 18:32:04;;;;;;;1999.90;999.90;;;;;;;11.32;66.46;101107.72;15344662;29;20054;-62
2021/05/03 18:39:36;;;;;;;1999.90;999.90;;;;;;;11.37;65.41;101104.78;15371097;28;20146;-59
2021/05/03 18:47:08;;;;;;;1999.90;999.90;;;;;;;11.28;66.18;101101.97;15357322;28;20126;-59
2021/05/03 18:54:40;;;;;;;1999.90;999.90;;;;;;;10.50;68.73;101097.38;15356690;28;20039;-59
2021/05/03 19:02:13;;;;;;;1999.90;999.90;;;;;;;11.02;67.32;101080.75;15372546;29;20039;-59
2021/05/03 19:09:45;;;;;;;1999.90;999.90;;;;;;;10.76;68.02;101089.09;15351908;29;20633;-59
2021/05/03 19:17:17;;;;;;;1999.90;999.90;;;;;;;10.43;68.48;101083.09;15335621;28;20062;-59
2021/05/03 19:24:49;;;;;;;1999.90;999.90;;;;;;;10.30;68.21;101080.09;15351355;28;20051;-60
2021/05/03 19:50:48;;;;;;;1999.90;999.90;;;;;;;9.73;70.54;101067.97;15370390;28;20121;-53
2021/05/03 20:06:08;;;;;;;1999.90;999.90;;;;;;;9.10;73.16;101055.09;15367268;28;20134;-59
2021/05/03 20:13:40;;;;;;;1999.90;999.90;;;;;;;9.23;72.44;101041.09;15335431;28;20051;-58
2021/05/03 20:21:12;;;;;;;1999.90;999.90;;;;;;;9.36;70.77;101025.47;15352060;29;20109;-59
2021/05/03 20:28:44;;;;;;;1999.90;999.90;;;;;;;9.40;69.81;101045.97;15368811;28;20040;-59
2021/05/03 20:36:24;;;;;;;1999.90;999.90;;;;;;;9.28;69.73;101031.00;15368451;28;20349;-60
2021/05/03 20:43:56;;;;;;;1999.90;999.90;;;;;;;9.39;68.79;101026.81;15352121;28;20421;-61
2021/05/03 20:51:28;;;;;;;1999.90;999.90;;;;;;;9.13;68.48;101016.28;15349609;29;20138;-61
2021/05/03 20:59:00;;;;;;;1999.90;999.90;;;;;;;8.95;68.79;101015.31;15363840;28;20142;-59
2021/05/03 21:06:33;;;;;;;1999.90;999.90;;;;;;;8.83;68.94;101005.88;15360065;28;20114;-59
2021/05/03 21:14:04;;;;;;;1999.90;999.90;;;;;;;8.58;70.16;100988.66;15363585;28;20070;-61
2021/05/03 21:21:38;;;;;;;1999.90;999.90;;;;;;;8.90;68.64;100986.81;15360346;29;20384;-60
2021/05/03 21:29:10;;;;;;;1999.90;999.90;;;;;;;8.88;68.08;100976.00;15437494;23;20077;-57
2021/05/03 21:36:42;;;;;;;1999.90;999.90;;;;;;;8.88;68.13;100958.47;15405645;28;20511;-56
2021/05/03 21:44:14;;;;;;;1999.90;999.90;;;;;;;8.72;68.04;100946.06;15437221;28;20075;-53
2021/05/03 21:51:46;;;;;;;1999.90;999.90;;;;;;;8.78;68.16;100939.25;15420346;28;20039;-54
2021/05/03 21:59:19;;;;;;;1999.90;999.90;;;;;;;8.72;67.47;100935.75;15420325;28;20049;-54
2021/05/03 22:06:52;;;;;;;1999.90;999.90;;;;;;;8.32;68.24;100918.84;15437782;28;20057;-54
2021/05/03 22:14:24;;;;;;;1999.90;999.90;;;;;;;8.47;67.62;100914.94;15418703;28;20110;-58
2021/05/03 22:22:03;;;;;;;1999.90;999.90;;;;;;;7.88;69.33;100904.84;15424480;28;20050;-56
2021/05/03 22:29:34;;;;;;;1999.90;999.90;;;;;;;7.71;69.29;100888.78;15479519;28;20049;-59
2021/05/03 22:37:13;;;;;;;1999.90;999.90;;;;;;;7.78;68.82;100884.47;15478302;28;20069;-53
2021/05/03 23:16:21;;;;;;;1999.90;999.90;;;;;;;7.95;65.86;100814.38;15493053;28;20058;-55
2021/05/03 23:23:53;;;;;;;1999.90;999.90;;;;;;;7.88;65.56;100799.25;15455195;28;20046;-56
2021/05/03 23:31:25;;;;;;;1999.90;999.90;;;;;;;7.68;66.51;100793.03;15459198;28;20297;-58
2021/05/03 23:38:57;;;;;;;1999.90;999.90;;;;;;;7.61;66.53;100789.88;15457335;28;20109;-56
2021/05/03 23:46:30;;;;;;;1999.90;999.90;;;;;;;7.48;67.73;100768.47;15490284;28;20050;-56
2021/05/03 23:54:04;;;;;;;1999.90;999.90;;;;;;;7.40;65.93;100745.06;15491162;28;20224;-58
